sensor_id;sensor_type;location;lat;lon;timestamp;temperature;humidity
18163;DHT22;9206;50.994;4.538;2023-08-12T00:02:19;20.70;99.90
18163;DHT22;9206;50.994;4.538;2023-08-12T00:05:14;20.70;99.90
18163;DHT22;9206;50.994;4.538;2023-08-12T00:08:16;20.70;99.90
18163;DHT22;9206;50.994;4.538;2023-08-12T00:11:07;20.70;99.90
18163;DHT22;9206;50.994;4.538;2023-08-12T00:17:41;20.60;99.90
18163;DHT22;9206;50.994;4.538;2023-08-12T00:20:29;20.60;99.90
18163;DHT22;9206;50.994;4.538;2023-08-12T00:23:16;20.60;99.90
18163;DHT22;9206;50.994;4.538;2023-08-12T00:29:47;20.60;99.90
18163;DHT22;9206;50.994;4.538;2023-08-12T00:32:37;20.50;99.90
18163;DHT22;9206;50.994;4.538;2023-08-12T00:39:14;20.50;99.90
18163;DHT22;9206;50.994;4.538;2023-08-12T00:42:02;20.50;99.90
18163;DHT22;9206;50.994;4.538;2023-08-12T00:44:51;20.50;99.90
18163;DHT22;9206;50.994;4.538;2023-08-12T00:54:57;20.40;99.90
18163;DHT22;9206;50.994;4.538;2023-08-12T00:57:48;20.40;99.90
18163;DHT22;9206;50.994;4.538;2023-08-12T01:00:42;20.40;99.90
18163;DHT22;9206;50.994;4.538;2023-08-12T01:03:35;20.40;99.90
18163;DHT22;9206;50.994;4.538;2023-08-12T01:06:29;20.40;99.90
18163;DHT22;9206;50.994;4.538;2023-08-12T01:09:22;20.40;99.90
18163;DHT22;9206;50.994;4.538;2023-08-12T01:12:13;20.40;99.90
18163;DHT22;9206;50.994;4.538;2023-08-12T01:15:08;20.40;99.90
18163;DHT22;9206;50.994;4.538;2023-08-12T01:17:57;20.40;99.90
18163;DHT22;9206;50.994;4.538;2023-08-12T01:20:48;20.40;99.90
18163;DHT22;9206;50.994;4.538;2023-08-12T01:23:42;20.40;99.90
18163;DHT22;9206;50.994;4.538;2023-08-12T01:26:33;20.30;99.90
18163;DHT22;9206;50.994;4.538;2023-08-12T01:29:23;20.30;99.90
18163;DHT22;9206;50.994;4.538;2023-08-12T01:32:14;20.30;99.90
18163;DHT22;9206;50.994;4.538;2023-08-12T01:35:09;20.30;99.90
18163;DHT22;9206;50.994;4.538;2023-08-12T01:38:01;20.30;99.90
18163;DHT22;9206;50.994;4.538;2023-08-12T01:40:52;20.30;99.90
18163;DHT22;9206;50.994;4.538;2023-08-12T01:43:46;20.30;99.90
18163;DHT22;9206;50.994;4.538;2023-08-12T01:46:43;20.20;99.90
18163;DHT22;9206;50.994;4.538;2023-08-12T01:49:31;20.10;99.90
18163;DHT22;9206;50.994;4.538;2023-08-12T01:52:25;20.10;99.90
18163;DHT22;9206;50.994;4.538;2023-08-12T01:55:12;20.10;99.90
18163;DHT22;9206;50.994;4.538;2023-08-12T01:58:03;20.10;99.90
18163;DHT22;9206;50.994;4.538;2023-08-12T02:04:36;20.10;99.90
18163;DHT22;9206;50.994;4.538;2023-08-12T02:07:24;20.00;99.90
18163;DHT22;9206;50.994;4.538;2023-08-12T02:10:11;20.00;99.90
18163;DHT22;9206;50.994;4.538;2023-08-12T02:20:27;19.90;99.90
18163;DHT22;9206;50.994;4.538;2023-08-12T02:23:21;19.90;99.90
18163;DHT22;9206;50.994;4.538;2023-08-12T02:29:51;20.00;99.90
18163;DHT22;9206;50.994;4.538;2023-08-12T02:32:41;20.00;99.90
18163;DHT22;9206;50.994;4.538;2023-08-12T02:35:37;20.00;99.90
18163;DHT22;9206;50.994;4.538;2023-08-12T02:38:34;20.00;99.90
18163;DHT22;9206;50.994;4.538;2023-08-12T02:41:23;19.90;99.90
18163;DHT22;9206;50.994;4.538;2023-08-12T02:44:15;19.90;99.90
18163;DHT22;9206;50.994;4.538;2023-08-12T02:50:48;19.90;99.90
18163;DHT22;9206;50.994;4.538;2023-08-12T02:57:21;19.80;99.90
18163;DHT22;9206;50.994;4.538;2023-08-12T03:00:14;19.80;99.90
18163;DHT22;9206;50.994;4.538;2023-08-12T03:21:35;19.70;99.90
18163;DHT22;9206;50.994;4.538;2023-08-12T03:24:28;19.70;99.90
18163;DHT22;9206;50.994;4.538;2023-08-12T03:30:59;19.70;99.90
18163;DHT22;9206;50.994;4.538;2023-08-12T03:33:47;19.70;99.90
18163;DHT22;9206;50.994;4.538;2023-08-12T03:36:40;19.70;99.90
18163;DHT22;9206;50.994;4.538;2023-08-12T03:39:33;19.70;99.90
18163;DHT22;9206;50.994;4.538;2023-08-12T03:42:22;19.70;99.90
18163;DHT22;9206;50.994;4.538;2023-08-12T03:52:37;19.60;99.90
18163;DHT22;9206;50.994;4.538;2023-08-12T03:55:30;19.60;99.90
18163;DHT22;9206;50.994;4.538;2023-08-12T03:58:18;19.60;99.90
18163;DHT22;9206;50.994;4.538;2023-08-12T04:01:06;19.60;99.90
18163;DHT22;9206;50.994;4.538;2023-08-12T04:04:04;19.60;99.90
18163;DHT22;9206;50.994;4.538;2023-08-12T04:06:55;19.50;99.90
18163;DHT22;9206;50.994;4.538;2023-08-12T04:09:44;19.50;99.90
18163;DHT22;9206;50.994;4.538;2023-08-12T04:12:32;19.50;99.90
18163;DHT22;9206;50.994;4.538;2023-08-12T04:15:21;19.50;99.90
18163;DHT22;9206;50.994;4.538;2023-08-12T04:21:57;19.50;99.90
18163;DHT22;9206;50.994;4.538;2023-08-12T04:24:49;19.50;99.90
18163;DHT22;9206;50.994;4.538;2023-08-12T04:31:20;19.50;99.90
18163;DHT22;9206;50.994;4.538;2023-08-12T04:34:07;19.50;99.90
18163;DHT22;9206;50.994;4.538;2023-08-12T04:36:58;19.50;99.90
18163;DHT22;9206;50.994;4.538;2023-08-12T04:39:50;19.40;99.90
18163;DHT22;9206;50.994;4.538;2023-08-12T04:42:40;19.40;99.90
18163;DHT22;9206;50.994;4.538;2023-08-12T04:49:11;19.40;99.90
18163;DHT22;9206;50.994;4.538;2023-08-12T04:52:05;19.50;99.90
18163;DHT22;9206;50.994;4.538;2023-08-12T04:55:01;19.50;99.90
18163;DHT22;9206;50.994;4.538;2023-08-12T04:57:52;19.50;99.90
18163;DHT22;9206;50.994;4.538;2023-08-12T05:00:42;19.50;99.90
18163;DHT22;9206;50.994;4.538;2023-08-12T05:07:20;19.50;99.90
18163;DHT22;9206;50.994;4.538;2023-08-12T05:10:09;19.50;99.90
18163;DHT22;9206;50.994;4.538;2023-08-12T05:12:58;19.50;99.90
18163;DHT22;9206;50.994;4.538;2023-08-12T05:15:47;19.60;99.90
18163;DHT22;9206;50.994;4.538;2023-08-12T05:22:18;19.60;99.90
18163;DHT22;9206;50.994;4.538;2023-08-12T05:25:06;19.60;99.90
18163;DHT22;9206;50.994;4.538;2023-08-12T05:27:55;19.60;99.90
18163;DHT22;9206;50.994;4.538;2023-08-12T05:30:46;19.70;99.90
18163;DHT22;9206;50.994;4.538;2023-08-12T05:33:36;19.70;99.90
18163;DHT22;9206;50.994;4.538;2023-08-12T05:36:27;19.70;99.90
18163;DHT22;9206;50.994;4.538;2023-08-12T05:42:57;19.70;99.90
18163;DHT22;9206;50.994;4.538;2023-08-12T05:45:45;19.70;99.90
18163;DHT22;9206;50.994;4.538;2023-08-12T05:52:18;19.80;99.90
18163;DHT22;9206;50.994;4.538;2023-08-12T05:55:06;19.80;99.90
18163;DHT22;9206;50.994;4.538;2023-08-12T05:58:03;19.80;99.90
18163;DHT22;9206;50.994;4.538;2023-08-12T06:00:52;19.80;99.90
18163;DHT22;9206;50.994;4.538;2023-08-12T06:03:43;19.80;99.90
18163;DHT22;9206;50.994;4.538;2023-08-12T06:10:35;19.80;99.90
18163;DHT22;9206;50.994;4.538;2023-08-12T06:13:25;19.90;99.90
18163;DHT22;9206;50.994;4.538;2023-08-12T06:16:16;19.90;99.90
18163;DHT22;9206;50.994;4.538;2023-08-12T06:22:48;19.90;99.90
18163;DHT22;9206;50.994;4.538;2023-08-12T06:25:41;20.00;99.90
18163;DHT22;9206;50.994;4.538;2023-08-12T06:28:36;20.00;99.90
18163;DHT22;9206;50.994;4.538;2023-08-12T06:31:25;20.00;99.90
18163;DHT22;9206;50.994;4.538;2023-08-12T06:34:16;20.00;99.90
18163;DHT22;9206;50.994;4.538;2023-08-12T06:37:03;20.00;99.90
18163;DHT22;9206;50.994;4.538;2023-08-12T06:39:57;20.00;99.90
18163;DHT22;9206;50.994;4.538;2023-08-12T06:42:45;20.00;99.90
18163;DHT22;9206;50.994;4.538;2023-08-12T06:49:19;20.10;99.90
18163;DHT22;9206;50.994;4.538;2023-08-12T06:52:15;20.10;99.90
18163;DHT22;9206;50.994;4.538;2023-08-12T06:55:30;20.20;99.90
18163;DHT22;9206;50.994;4.538;2023-08-12T06:58:22;20.30;99.90
18163;DHT22;9206;50.994;4.538;2023-08-12T07:01:09;20.20;99.90
18163;DHT22;9206;50.994;4.538;2023-08-12T07:07:40;20.30;99.90
18163;DHT22;9206;50.994;4.538;2023-08-12T07:10:29;20.40;99.90
18163;DHT22;9206;50.994;4.538;2023-08-12T07:13:26;20.40;99.90
18163;DHT22;9206;50.994;4.538;2023-08-12T07:20:00;20.40;99.90
18163;DHT22;9206;50.994;4.538;2023-08-12T07:23:09;20.40;99.90
18163;DHT22;9206;50.994;4.538;2023-08-12T07:26:02;20.40;99.90
18163;DHT22;9206;50.994;4.538;2023-08-12T07:29:12;20.40;99.90
18163;DHT22;9206;50.994;4.538;2023-08-12T07:32:19;20.40;99.90
18163;DHT22;9206;50.994;4.538;2023-08-12T07:35:24;20.30;99.90
18163;DHT22;9206;50.994;4.538;2023-08-12T07:44:40;20.20;99.90
18163;DHT22;9206;50.994;4.538;2023-08-12T07:47:44;20.10;99.90
18163;DHT22;9206;50.994;4.538;2023-08-12T07:50:41;20.10;99.90
18163;DHT22;9206;50.994;4.538;2023-08-12T07:54:33;20.10;99.90
18163;DHT22;9206;50.994;4.538;2023-08-12T07:59:50;20.20;99.90
18163;DHT22;9206;50.994;4.538;2023-08-12T08:02:40;20.50;99.90
18163;DHT22;9206;50.994;4.538;2023-08-12T08:05:34;21.00;99.90
18163;DHT22;9206;50.994;4.538;2023-08-12T08:08:23;21.40;99.90
18163;DHT22;9206;50.994;4.538;2023-08-12T08:14:55;21.40;99.90
18163;DHT22;9206;50.994;4.538;2023-08-12T08:28:55;21.20;99.90
18163;DHT22;9206;50.994;4.538;2023-08-12T08:31:45;21.00;99.90
18163;DHT22;9206;50.994;4.538;2023-08-12T08:38:18;21.10;99.90
18163;DHT22;9206;50.994;4.538;2023-08-12T08:41:08;21.00;99.90
18163;DHT22;9206;50.994;4.538;2023-08-12T08:47:41;20.90;99.90
18163;DHT22;9206;50.994;4.538;2023-08-12T08:50:36;21.10;99.90
18163;DHT22;9206;50.994;4.538;2023-08-12T08:53:25;21.20;99.90
18163;DHT22;9206;50.994;4.538;2023-08-12T08:56:15;21.30;99.90
18163;DHT22;9206;50.994;4.538;2023-08-12T08:59:03;21.40;99.90
18163;DHT22;9206;50.994;4.538;2023-08-12T09:05:35;21.60;99.90
18163;DHT22;9206;50.994;4.538;2023-08-12T09:12:14;21.70;99.90
18163;DHT22;9206;50.994;4.538;2023-08-12T09:18:44;22.00;99.90
18163;DHT22;9206;50.994;4.538;2023-08-12T09:25:20;23.10;99.90
18163;DHT22;9206;50.994;4.538;2023-08-12T09:31:53;23.70;99.90
18163;DHT22;9206;50.994;4.538;2023-08-12T09:34:49;23.80;99.90
18163;DHT22;9206;50.994;4.538;2023-08-12T09:41:24;24.10;99.90
18163;DHT22;9206;50.994;4.538;2023-08-12T09:47:57;24.40;99.90
18163;DHT22;9206;50.994;4.538;2023-08-12T09:50:52;24.10;99.90
18163;DHT22;9206;50.994;4.538;2023-08-12T09:53:47;23.90;99.90
18163;DHT22;9206;50.994;4.538;2023-08-12T09:56:40;23.90;99.90
18163;DHT22;9206;50.994;4.538;2023-08-12T09:59:38;24.00;99.90
18163;DHT22;9206;50.994;4.538;2023-08-12T10:02:30;24.00;99.90
18163;DHT22;9206;50.994;4.538;2023-08-12T10:05:27;24.20;99.90
18163;DHT22;9206;50.994;4.538;2023-08-12T10:08:18;24.40;99.90
18163;DHT22;9206;50.994;4.538;2023-08-12T10:11:06;24.60;99.90
18163;DHT22;9206;50.994;4.538;2023-08-12T10:17:49;25.00;99.90
18163;DHT22;9206;50.994;4.538;2023-08-12T10:20:42;25.30;99.90
18163;DHT22;9206;50.994;4.538;2023-08-12T10:23:36;25.50;99.90
18163;DHT22;9206;50.994;4.538;2023-08-12T10:26:24;25.90;99.90
18163;DHT22;9206;50.994;4.538;2023-08-12T10:32:56;25.40;99.90
18163;DHT22;9206;50.994;4.538;2023-08-12T10:35:48;25.30;99.90
18163;DHT22;9206;50.994;4.538;2023-08-12T10:38:38;25.30;99.90
18163;DHT22;9206;50.994;4.538;2023-08-12T10:41:37;25.50;99.90
18163;DHT22;9206;50.994;4.538;2023-08-12T10:48:18;25.70;99.90
18163;DHT22;9206;50.994;4.538;2023-08-12T10:51:08;25.90;99.90
18163;DHT22;9206;50.994;4.538;2023-08-12T10:54:14;26.50;99.90
18163;DHT22;9206;50.994;4.538;2023-08-12T11:00:58;29.50;99.90
18163;DHT22;9206;50.994;4.538;2023-08-12T11:03:52;29.90;99.90
18163;DHT22;9206;50.994;4.538;2023-08-12T11:06:46;30.10;99.90
18163;DHT22;9206;50.994;4.538;2023-08-12T11:09:38;30.10;99.90
18163;DHT22;9206;50.994;4.538;2023-08-12T11:12:34;29.70;99.90
18163;DHT22;9206;50.994;4.538;2023-08-12T11:19:08;30.30;99.90
18163;DHT22;9206;50.994;4.538;2023-08-12T11:21:56;30.40;99.90
18163;DHT22;9206;50.994;4.538;2023-08-12T11:24:58;31.00;99.90
18163;DHT22;9206;50.994;4.538;2023-08-12T11:31:34;32.60;99.90
18163;DHT22;9206;50.994;4.538;2023-08-12T11:38:07;32.00;99.90
18163;DHT22;9206;50.994;4.538;2023-08-12T11:40:54;32.30;99.90
18163;DHT22;9206;50.994;4.538;2023-08-12T11:43:42;31.80;99.90
18163;DHT22;9206;50.994;4.538;2023-08-12T11:46:32;31.00;99.90
18163;DHT22;9206;50.994;4.538;2023-08-12T11:53:06;31.60;99.90
18163;DHT22;9206;50.994;4.538;2023-08-12T12:03:19;31.30;99.90
18163;DHT22;9206;50.994;4.538;2023-08-12T12:06:13;30.10;99.90
18163;DHT22;9206;50.994;4.538;2023-08-12T12:09:04;30.60;99.90
18163;DHT22;9206;50.994;4.538;2023-08-12T12:11:52;30.60;99.90
18163;DHT22;9206;50.994;4.538;2023-08-12T12:14:47;30.70;99.90
18163;DHT22;9206;50.994;4.538;2023-08-12T12:21:20;30.50;99.90
18163;DHT22;9206;50.994;4.538;2023-08-12T12:24:10;30.40;99.90
18163;DHT22;9206;50.994;4.538;2023-08-12T12:26:57;30.00;99.90
18163;DHT22;9206;50.994;4.538;2023-08-12T12:33:27;29.30;99.90
18163;DHT22;9206;50.994;4.538;2023-08-12T12:36:18;29.30;99.90
18163;DHT22;9206;50.994;4.538;2023-08-12T12:42:50;29.00;99.90
18163;DHT22;9206;50.994;4.538;2023-08-12T12:53:02;28.90;99.90
18163;DHT22;9206;50.994;4.538;2023-08-12T12:55:49;28.60;99.90
18163;DHT22;9206;50.994;4.538;2023-08-12T12:58:38;28.30;99.90
18163;DHT22;9206;50.994;4.538;2023-08-12T13:01:26;28.50;99.90
18163;DHT22;9206;50.994;4.538;2023-08-12T13:04:21;28.50;99.90
18163;DHT22;9206;50.994;4.538;2023-08-12T13:07:22;28.90;99.90
18163;DHT22;9206;50.994;4.538;2023-08-12T13:13:54;28.50;99.90
18163;DHT22;9206;50.994;4.538;2023-08-12T13:16:43;27.70;99.90
18163;DHT22;9206;50.994;4.538;2023-08-12T13:19:36;27.90;99.90
18163;DHT22;9206;50.994;4.538;2023-08-12T13:26:09;28.80;99.90
18163;DHT22;9206;50.994;4.538;2023-08-12T13:29:08;29.20;99.90
18163;DHT22;9206;50.994;4.538;2023-08-12T13:31:55;29.20;99.90
18163;DHT22;9206;50.994;4.538;2023-08-12T13:34:43;29.20;99.90
18163;DHT22;9206;50.994;4.538;2023-08-12T13:37:37;29.00;99.90
18163;DHT22;9206;50.994;4.538;2023-08-12T13:40:26;29.10;99.90
18163;DHT22;9206;50.994;4.538;2023-08-12T13:43:13;29.20;99.90
18163;DHT22;9206;50.994;4.538;2023-08-12T13:46:08;28.60;99.90
18163;DHT22;9206;50.994;4.538;2023-08-12T13:55:56;27.80;99.90
18163;DHT22;9206;50.994;4.538;2023-08-12T14:10:13;27.20;99.90
18163;DHT22;9206;50.994;4.538;2023-08-12T14:13:26;27.30;99.90
18163;DHT22;9206;50.994;4.538;2023-08-12T14:16:22;27.60;99.90
18163;DHT22;9206;50.994;4.538;2023-08-12T14:19:14;27.50;99.90
18163;DHT22;9206;50.994;4.538;2023-08-12T14:22:03;27.70;99.90
18163;DHT22;9206;50.994;4.538;2023-08-12T14:24:56;27.70;99.90
18163;DHT22;9206;50.994;4.538;2023-08-12T14:27:51;27.70;99.90
18163;DHT22;9206;50.994;4.538;2023-08-12T14:30:39;27.60;99.90
18163;DHT22;9206;50.994;4.538;2023-08-12T14:33:33;27.50;99.90
18163;DHT22;9206;50.994;4.538;2023-08-12T14:36:26;27.40;99.90
18163;DHT22;9206;50.994;4.538;2023-08-12T14:39:20;27.60;99.90
18163;DHT22;9206;50.994;4.538;2023-08-12T14:42:22;27.80;99.90
18163;DHT22;9206;50.994;4.538;2023-08-12T14:45:11;28.00;99.90
18163;DHT22;9206;50.994;4.538;2023-08-12T14:47:59;28.20;99.90
18163;DHT22;9206;50.994;4.538;2023-08-12T14:50:46;28.10;99.90
18163;DHT22;9206;50.994;4.538;2023-08-12T14:53:36;28.00;99.90
18163;DHT22;9206;50.994;4.538;2023-08-12T14:56:28;27.80;99.90
18163;DHT22;9206;50.994;4.538;2023-08-12T14:59:19;27.70;99.90
18163;DHT22;9206;50.994;4.538;2023-08-12T15:02:20;27.60;99.90
18163;DHT22;9206;50.994;4.538;2023-08-12T15:05:17;27.10;99.90
18163;DHT22;9206;50.994;4.538;2023-08-12T15:08:05;26.70;99.90
18163;DHT22;9206;50.994;4.538;2023-08-12T15:10:54;26.70;99.90
18163;DHT22;9206;50.994;4.538;2023-08-12T15:13:41;27.00;99.90
18163;DHT22;9206;50.994;4.538;2023-08-12T15:16:32;27.20;99.90
18163;DHT22;9206;50.994;4.538;2023-08-12T15:19:22;27.40;99.90
18163;DHT22;9206;50.994;4.538;2023-08-12T15:22:13;27.10;99.90
18163;DHT22;9206;50.994;4.538;2023-08-12T15:25:06;27.00;99.90
18163;DHT22;9206;50.994;4.538;2023-08-12T15:27:55;26.90;99.90
18163;DHT22;9206;50.994;4.538;2023-08-12T15:31:00;26.90;99.90
18163;DHT22;9206;50.994;4.538;2023-08-12T15:33:53;26.90;99.90
18163;DHT22;9206;50.994;4.538;2023-08-12T15:36:44;26.80;99.90
18163;DHT22;9206;50.994;4.538;2023-08-12T15:39:33;26.80;99.90
18163;DHT22;9206;50.994;4.538;2023-08-12T15:42:24;26.90;99.90
18163;DHT22;9206;50.994;4.538;2023-08-12T15:45:37;26.70;99.90
18163;DHT22;9206;50.994;4.538;2023-08-12T15:48:36;26.70;99.90
18163;DHT22;9206;50.994;4.538;2023-08-12T15:51:24;26.50;99.90
18163;DHT22;9206;50.994;4.538;2023-08-12T15:54:14;26.40;99.90
18163;DHT22;9206;50.994;4.538;2023-08-12T15:57:07;26.50;99.90
18163;DHT22;9206;50.994;4.538;2023-08-12T15:59:56;26.40;99.90
18163;DHT22;9206;50.994;4.538;2023-08-12T16:02:49;26.00;99.90
18163;DHT22;9206;50.994;4.538;2023-08-12T16:05:43;25.50;99.90
18163;DHT22;9206;50.994;4.538;2023-08-12T16:08:33;25.30;99.90
18163;DHT22;9206;50.994;4.538;2023-08-12T16:11:24;25.40;99.90
18163;DHT22;9206;50.994;4.538;2023-08-12T16:14:35;25.30;99.90
18163;DHT22;9206;50.994;4.538;2023-08-12T16:17:26;25.30;99.90
18163;DHT22;9206;50.994;4.538;2023-08-12T16:20:19;25.40;99.90
18163;DHT22;9206;50.994;4.538;2023-08-12T16:23:13;25.50;99.90
18163;DHT22;9206;50.994;4.538;2023-08-12T16:26:02;25.40;99.90
18163;DHT22;9206;50.994;4.538;2023-08-12T16:28:56;25.10;99.90
18163;DHT22;9206;50.994;4.538;2023-08-12T16:31:46;25.10;99.90
18163;DHT22;9206;50.994;4.538;2023-08-12T16:34:37;25.10;99.90
18163;DHT22;9206;50.994;4.538;2023-08-12T16:37:26;25.20;99.90
18163;DHT22;9206;50.994;4.538;2023-08-12T16:40:17;25.10;99.90
18163;DHT22;9206;50.994;4.538;2023-08-12T16:43:10;25.20;99.90
18163;DHT22;9206;50.994;4.538;2023-08-12T16:46:05;25.40;99.90
18163;DHT22;9206;50.994;4.538;2023-08-12T16:48:53;25.40;99.90
18163;DHT22;9206;50.994;4.538;2023-08-12T16:51:41;25.40;99.90
18163;DHT22;9206;50.994;4.538;2023-08-12T16:54:49;25.20;99.90
18163;DHT22;9206;50.994;4.538;2023-08-12T16:58:02;25.00;99.90
18163;DHT22;9206;50.994;4.538;2023-08-12T17:00:54;24.80;99.90
18163;DHT22;9206;50.994;4.538;2023-08-12T17:03:46;24.60;99.90
18163;DHT22;9206;50.994;4.538;2023-08-12T17:06:36;24.60;99.90
18163;DHT22;9206;50.994;4.538;2023-08-12T17:09:30;24.60;99.90
18163;DHT22;9206;50.994;4.538;2023-08-12T17:12:22;24.70;99.90
18163;DHT22;9206;50.994;4.538;2023-08-12T17:15:28;24.70;99.90
18163;DHT22;9206;50.994;4.538;2023-08-12T17:18:31;24.60;99.90
18163;DHT22;9206;50.994;4.538;2023-08-12T17:21:22;24.40;99.90
18163;DHT22;9206;50.994;4.538;2023-08-12T17:24:19;24.30;99.90
18163;DHT22;9206;50.994;4.538;2023-08-12T17:27:26;24.20;99.90
18163;DHT22;9206;50.994;4.538;2023-08-12T17:30:19;24.00;99.90
18163;DHT22;9206;50.994;4.538;2023-08-12T17:33:08;23.90;99.90
18163;DHT22;9206;50.994;4.538;2023-08-12T17:35:57;23.80;99.90
18163;DHT22;9206;50.994;4.538;2023-08-12T17:38:46;23.70;99.90
18163;DHT22;9206;50.994;4.538;2023-08-12T17:41:37;23.60;99.90
18163;DHT22;9206;50.994;4.538;2023-08-12T17:44:28;23.50;99.90
18163;DHT22;9206;50.994;4.538;2023-08-12T17:47:19;23.50;99.90
18163;DHT22;9206;50.994;4.538;2023-08-12T17:50:12;23.40;99.90
18163;DHT22;9206;50.994;4.538;2023-08-12T17:53:05;23.30;99.90
18163;DHT22;9206;50.994;4.538;2023-08-12T17:56:08;23.30;99.90
18163;DHT22;9206;50.994;4.538;2023-08-12T17:59:00;23.30;99.90
18163;DHT22;9206;50.994;4.538;2023-08-12T18:01:47;23.30;99.90
18163;DHT22;9206;50.994;4.538;2023-08-12T18:04:38;23.20;99.90
18163;DHT22;9206;50.994;4.538;2023-08-12T18:07:25;23.10;99.90
18163;DHT22;9206;50.994;4.538;2023-08-12T18:10:14;23.00;99.90
18163;DHT22;9206;50.994;4.538;2023-08-12T18:13:05;22.90;99.90
18163;DHT22;9206;50.994;4.538;2023-08-12T18:15:53;22.80;99.90
18163;DHT22;9206;50.994;4.538;2023-08-12T18:18:40;22.70;99.90
18163;DHT22;9206;50.994;4.538;2023-08-12T18:21:30;22.60;99.90
18163;DHT22;9206;50.994;4.538;2023-08-12T18:24:19;22.50;99.90
18163;DHT22;9206;50.994;4.538;2023-08-12T18:27:09;22.50;99.90
18163;DHT22;9206;50.994;4.538;2023-08-12T18:30:04;22.40;99.90
18163;DHT22;9206;50.994;4.538;2023-08-12T18:32:52;22.30;99.90
18163;DHT22;9206;50.994;4.538;2023-08-12T18:35:45;22.10;99.90
18163;DHT22;9206;50.994;4.538;2023-08-12T18:38:34;22.10;99.90
18163;DHT22;9206;50.994;4.538;2023-08-12T18:41:27;21.90;99.90
18163;DHT22;9206;50.994;4.538;2023-08-12T18:44:20;21.80;99.90
18163;DHT22;9206;50.994;4.538;2023-08-12T18:47:10;21.70;99.90
18163;DHT22;9206;50.994;4.538;2023-08-12T18:50:03;21.60;99.90
18163;DHT22;9206;50.994;4.538;2023-08-12T18:52:53;21.60;99.90
18163;DHT22;9206;50.994;4.538;2023-08-12T18:55:40;21.40;99.90
18163;DHT22;9206;50.994;4.538;2023-08-12T18:58:30;21.30;99.90
18163;DHT22;9206;50.994;4.538;2023-08-12T19:01:18;21.20;99.90
18163;DHT22;9206;50.994;4.538;2023-08-12T19:04:07;21.10;99.90
18163;DHT22;9206;50.994;4.538;2023-08-12T19:06:56;21.00;99.90
18163;DHT22;9206;50.994;4.538;2023-08-12T19:09:46;20.90;99.90
18163;DHT22;9206;50.994;4.538;2023-08-12T19:12:34;20.80;99.90
18163;DHT22;9206;50.994;4.538;2023-08-12T19:15:28;20.70;99.90
18163;DHT22;9206;50.994;4.538;2023-08-12T19:18:24;20.60;99.90
18163;DHT22;9206;50.994;4.538;2023-08-12T19:21:14;20.50;99.90
18163;DHT22;9206;50.994;4.538;2023-08-12T19:24:04;20.40;99.90
18163;DHT22;9206;50.994;4.538;2023-08-12T19:26:52;20.30;99.90
18163;DHT22;9206;50.994;4.538;2023-08-12T19:29:43;20.20;99.90
18163;DHT22;9206;50.994;4.538;2023-08-12T19:32:46;20.00;99.90
18163;DHT22;9206;50.994;4.538;2023-08-12T19:35:36;19.90;99.90
18163;DHT22;9206;50.994;4.538;2023-08-12T19:38:25;19.80;99.90
18163;DHT22;9206;50.994;4.538;2023-08-12T19:41:13;19.70;99.90
18163;DHT22;9206;50.994;4.538;2023-08-12T19:44:03;19.60;99.90
18163;DHT22;9206;50.994;4.538;2023-08-12T19:46:57;19.50;99.90
18163;DHT22;9206;50.994;4.538;2023-08-12T19:49:46;19.40;99.90
18163;DHT22;9206;50.994;4.538;2023-08-12T19:52:35;19.30;99.90
18163;DHT22;9206;50.994;4.538;2023-08-12T19:55:24;19.30;99.90
18163;DHT22;9206;50.994;4.538;2023-08-12T19:58:13;19.20;99.90
18163;DHT22;9206;50.994;4.538;2023-08-12T20:01:02;19.20;99.90
18163;DHT22;9206;50.994;4.538;2023-08-12T20:03:56;19.10;99.90
18163;DHT22;9206;50.994;4.538;2023-08-12T20:06:56;19.00;99.90
18163;DHT22;9206;50.994;4.538;2023-08-12T20:09:49;18.90;99.90
18163;DHT22;9206;50.994;4.538;2023-08-12T20:12:39;18.90;99.90
18163;DHT22;9206;50.994;4.538;2023-08-12T20:15:27;18.90;99.90
18163;DHT22;9206;50.994;4.538;2023-08-12T20:18:23;18.80;99.90
18163;DHT22;9206;50.994;4.538;2023-08-12T20:21:13;18.70;99.90
18163;DHT22;9206;50.994;4.538;2023-08-12T20:24:13;18.70;99.90
18163;DHT22;9206;50.994;4.538;2023-08-12T20:27:01;18.60;99.90
18163;DHT22;9206;50.994;4.538;2023-08-12T20:29:56;18.60;99.90
18163;DHT22;9206;50.994;4.538;2023-08-12T20:32:49;18.50;99.90
18163;DHT22;9206;50.994;4.538;2023-08-12T20:35:43;18.50;99.90
18163;DHT22;9206;50.994;4.538;2023-08-12T20:38:33;18.40;99.90
18163;DHT22;9206;50.994;4.538;2023-08-12T20:41:34;18.40;99.90
18163;DHT22;9206;50.994;4.538;2023-08-12T20:44:27;18.30;99.90
18163;DHT22;9206;50.994;4.538;2023-08-12T20:47:22;18.30;99.90
18163;DHT22;9206;50.994;4.538;2023-08-12T20:50:39;18.20;99.90
18163;DHT22;9206;50.994;4.538;2023-08-12T20:53:42;18.20;99.90
18163;DHT22;9206;50.994;4.538;2023-08-12T20:56:31;18.20;99.90
18163;DHT22;9206;50.994;4.538;2023-08-12T20:59:20;18.10;99.90
18163;DHT22;9206;50.994;4.538;2023-08-12T21:02:08;18.00;99.90
18163;DHT22;9206;50.994;4.538;2023-08-12T21:05:00;18.00;99.90
18163;DHT22;9206;50.994;4.538;2023-08-12T21:18:38;17.80;99.90
18163;DHT22;9206;50.994;4.538;2023-08-12T22:34:30;17.80;99.90
18163;DHT22;9206;50.994;4.538;2023-08-12T22:37:19;17.80;99.90
18163;DHT22;9206;50.994;4.538;2023-08-12T22:40:08;17.80;99.90
18163;DHT22;9206;50.994;4.538;2023-08-12T22:42:59;17.80;99.90
18163;DHT22;9206;50.994;4.538;2023-08-12T22:45:58;17.70;99.90
18163;DHT22;9206;50.994;4.538;2023-08-12T22:49:09;17.60;99.90
18163;DHT22;9206;50.994;4.538;2023-08-12T22:52:19;17.50;99.90
18163;DHT22;9206;50.994;4.538;2023-08-12T22:55:13;17.40;99.90
18163;DHT22;9206;50.994;4.538;2023-08-12T22:58:14;17.30;99.90
18163;DHT22;9206;50.994;4.538;2023-08-12T23:01:03;17.30;99.90
18163;DHT22;9206;50.994;4.538;2023-08-12T23:03:54;17.30;99.90
18163;DHT22;9206;50.994;4.538;2023-08-12T23:06:44;17.20;99.90
18163;DHT22;9206;50.994;4.538;2023-08-12T23:09:39;17.20;99.90
18163;DHT22;9206;50.994;4.538;2023-08-12T23:12:27;17.10;99.90
18163;DHT22;9206;50.994;4.538;2023-08-12T23:15:17;17.00;99.90
18163;DHT22;9206;50.994;4.538;2023-08-12T23:18:05;17.00;99.90
18163;DHT22;9206;50.994;4.538;2023-08-12T23:20:54;16.90;99.90
18163;DHT22;9206;50.994;4.538;2023-08-12T23:23:45;16.90;99.90
18163;DHT22;9206;50.994;4.538;2023-08-12T23:26:35;16.90;99.90
18163;DHT22;9206;50.994;4.538;2023-08-12T23:29:26;16.80;99.90
18163;DHT22;9206;50.994;4.538;2023-08-12T23:32:15;16.70;99.90
18163;DHT22;9206;50.994;4.538;2023-08-12T23:35:03;16.70;99.90
18163;DHT22;9206;50.994;4.538;2023-08-12T23:38:03;16.70;99.90
18163;DHT22;9206;50.994;4.538;2023-08-12T23:41:07;16.60;99.90
18163;DHT22;9206;50.994;4.538;2023-08-12T23:43:57;16.50;99.90
18163;DHT22;9206;50.994;4.538;2023-08-12T23:46:46;16.50;99.90
18163;DHT22;9206;50.994;4.538;2023-08-12T23:50:00;16.60;99.90
18163;DHT22;9206;50.994;4.538;2023-08-12T23:53:01;16.60;99.90
18163;DHT22;9206;50.994;4.538;2023-08-12T23:55:51;16.60;99.90
18163;DHT22;9206;50.994;4.538;2023-08-12T23:58:41;16.60;99.90
